sensor_id;sensor_type;location;lat;lon;timestamp;temperature;humidity
17421;DHT22;8828;48.800;9.540;2022-09-28T00:02:22;11.60;99.90
17421;DHT22;8828;48.800;9.540;2022-09-28T00:04:51;11.50;99.90
17421;DHT22;8828;48.800;9.540;2022-09-28T00:07:19;11.50;99.90
17421;DHT22;8828;48.800;9.540;2022-09-28T00:09:47;11.60;99.90
17421;DHT22;8828;48.800;9.540;2022-09-28T00:12:14;11.50;99.90
17421;DHT22;8828;48.800;9.540;2022-09-28T00:14:42;11.60;99.90
17421;DHT22;8828;48.800;9.540;2022-09-28T00:17:12;11.60;99.90
17421;DHT22;8828;48.800;9.540;2022-09-28T00:19:42;11.60;99.90
17421;DHT22;8828;48.800;9.540;2022-09-28T00:22:11;11.60;99.90
17421;DHT22;8828;48.800;9.540;2022-09-28T00:24:39;11.50;99.90
17421;DHT22;8828;48.800;9.540;2022-09-28T00:27:07;11.60;99.90
17421;DHT22;8828;48.800;9.540;2022-09-28T00:29:36;11.50;99.90
17421;DHT22;8828;48.800;9.540;2022-09-28T00:32:06;11.50;99.90
17421;DHT22;8828;48.800;9.540;2022-09-28T00:34:37;11.50;99.90
17421;DHT22;8828;48.800;9.540;2022-09-28T00:37:05;11.50;99.90
17421;DHT22;8828;48.800;9.540;2022-09-28T00:39:34;11.50;99.90
17421;DHT22;8828;48.800;9.540;2022-09-28T00:42:11;11.50;99.90
17421;DHT22;8828;48.800;9.540;2022-09-28T00:44:46;11.50;99.90
17421;DHT22;8828;48.800;9.540;2022-09-28T00:47:42;11.50;99.90
17421;DHT22;8828;48.800;9.540;2022-09-28T00:50:18;11.60;99.90
17421;DHT22;8828;48.800;9.540;2022-09-28T00:52:51;11.50;99.90
17421;DHT22;8828;48.800;9.540;2022-09-28T00:55:25;11.50;99.90
17421;DHT22;8828;48.800;9.540;2022-09-28T00:57:56;11.50;99.90
17421;DHT22;8828;48.800;9.540;2022-09-28T01:00:25;11.50;99.90
17421;DHT22;8828;48.800;9.540;2022-09-28T01:02:53;11.50;99.90
17421;DHT22;8828;48.800;9.540;2022-09-28T01:05:23;11.40;99.90
17421;DHT22;8828;48.800;9.540;2022-09-28T01:07:52;11.50;99.90
17421;DHT22;8828;48.800;9.540;2022-09-28T01:10:21;11.40;99.90
17421;DHT22;8828;48.800;9.540;2022-09-28T01:12:49;11.40;99.90
17421;DHT22;8828;48.800;9.540;2022-09-28T01:15:18;11.40;99.90
17421;DHT22;8828;48.800;9.540;2022-09-28T01:18:00;11.50;99.90
17421;DHT22;8828;48.800;9.540;2022-09-28T01:20:50;11.50;99.90
17421;DHT22;8828;48.800;9.540;2022-09-28T01:23:42;11.40;99.90
17421;DHT22;8828;48.800;9.540;2022-09-28T01:26:47;11.50;99.90
17421;DHT22;8828;48.800;9.540;2022-09-28T01:29:29;11.50;99.90
17421;DHT22;8828;48.800;9.540;2022-09-28T01:32:06;11.50;99.90
17421;DHT22;8828;48.800;9.540;2022-09-28T01:34:40;11.50;99.90
17421;DHT22;8828;48.800;9.540;2022-09-28T01:37:11;11.40;99.90
17421;DHT22;8828;48.800;9.540;2022-09-28T01:39:43;11.50;99.90
17421;DHT22;8828;48.800;9.540;2022-09-28T01:42:17;11.50;99.90
17421;DHT22;8828;48.800;9.540;2022-09-28T01:44:50;11.50;99.90
17421;DHT22;8828;48.800;9.540;2022-09-28T01:47:20;11.50;99.90
17421;DHT22;8828;48.800;9.540;2022-09-28T01:49:53;11.50;99.90
17421;DHT22;8828;48.800;9.540;2022-09-28T01:52:25;11.40;99.90
17421;DHT22;8828;48.800;9.540;2022-09-28T01:54:57;11.40;99.90
17421;DHT22;8828;48.800;9.540;2022-09-28T01:57:32;11.50;99.90
17421;DHT22;8828;48.800;9.540;2022-09-28T02:00:04;11.50;99.90
17421;DHT22;8828;48.800;9.540;2022-09-28T02:02:36;11.50;99.90
17421;DHT22;8828;48.800;9.540;2022-09-28T02:05:10;11.40;99.90
17421;DHT22;8828;48.800;9.540;2022-09-28T02:07:41;11.50;99.90
17421;DHT22;8828;48.800;9.540;2022-09-28T02:10:13;11.50;99.90
17421;DHT22;8828;48.800;9.540;2022-09-28T02:12:47;11.50;99.90
17421;DHT22;8828;48.800;9.540;2022-09-28T02:15:19;11.50;99.90
17421;DHT22;8828;48.800;9.540;2022-09-28T02:17:47;11.50;99.90
17421;DHT22;8828;48.800;9.540;2022-09-28T02:20:16;11.50;99.90
17421;DHT22;8828;48.800;9.540;2022-09-28T02:22:46;11.40;99.90
17421;DHT22;8828;48.800;9.540;2022-09-28T02:25:22;11.50;99.90
17421;DHT22;8828;48.800;9.540;2022-09-28T02:27:57;11.50;99.90
17421;DHT22;8828;48.800;9.540;2022-09-28T02:30:27;11.50;99.90
17421;DHT22;8828;48.800;9.540;2022-09-28T02:33:12;11.50;99.90
17421;DHT22;8828;48.800;9.540;2022-09-28T02:35:41;11.50;99.90
17421;DHT22;8828;48.800;9.540;2022-09-28T02:38:11;11.50;99.90
17421;DHT22;8828;48.800;9.540;2022-09-28T02:40:41;11.50;99.90
17421;DHT22;8828;48.800;9.540;2022-09-28T02:43:15;11.50;99.90
17421;DHT22;8828;48.800;9.540;2022-09-28T02:46:00;11.50;99.90
17421;DHT22;8828;48.800;9.540;2022-09-28T02:48:45;11.50;99.90
17421;DHT22;8828;48.800;9.540;2022-09-28T02:51:39;11.50;99.90
17421;DHT22;8828;48.800;9.540;2022-09-28T02:54:20;11.50;99.90
17421;DHT22;8828;48.800;9.540;2022-09-28T02:56:58;11.50;99.90
17421;DHT22;8828;48.800;9.540;2022-09-28T02:59:42;11.60;99.90
17421;DHT22;8828;48.800;9.540;2022-09-28T03:02:19;11.50;99.90
17421;DHT22;8828;48.800;9.540;2022-09-28T03:07:44;11.50;99.90
17421;DHT22;8828;48.800;9.540;2022-09-28T03:10:16;11.50;99.90
17421;DHT22;8828;48.800;9.540;2022-09-28T03:12:47;11.50;99.90
17421;DHT22;8828;48.800;9.540;2022-09-28T03:15:22;11.60;99.90
17421;DHT22;8828;48.800;9.540;2022-09-28T03:17:50;11.60;99.90
17421;DHT22;8828;48.800;9.540;2022-09-28T03:20:18;11.60;99.90
17421;DHT22;8828;48.800;9.540;2022-09-28T03:22:46;11.50;99.90
17421;DHT22;8828;48.800;9.540;2022-09-28T03:25:34;11.60;99.90
17421;DHT22;8828;48.800;9.540;2022-09-28T03:28:02;11.60;99.90
17421;DHT22;8828;48.800;9.540;2022-09-28T03:30:31;11.60;99.90
17421;DHT22;8828;48.800;9.540;2022-09-28T03:32:59;11.60;99.90
17421;DHT22;8828;48.800;9.540;2022-09-28T03:35:28;11.60;99.90
17421;DHT22;8828;48.800;9.540;2022-09-28T03:37:56;11.60;99.90
17421;DHT22;8828;48.800;9.540;2022-09-28T03:40:24;11.60;99.90
17421;DHT22;8828;48.800;9.540;2022-09-28T03:42:52;11.60;99.90
17421;DHT22;8828;48.800;9.540;2022-09-28T03:45:20;11.60;99.90
17421;DHT22;8828;48.800;9.540;2022-09-28T03:47:49;11.60;99.90
17421;DHT22;8828;48.800;9.540;2022-09-28T03:50:17;11.60;99.90
17421;DHT22;8828;48.800;9.540;2022-09-28T03:52:45;11.50;99.90
17421;DHT22;8828;48.800;9.540;2022-09-28T03:55:13;11.50;99.90
17421;DHT22;8828;48.800;9.540;2022-09-28T03:57:41;11.60;99.90
17421;DHT22;8828;48.800;9.540;2022-09-28T04:00:10;11.60;99.90
17421;DHT22;8828;48.800;9.540;2022-09-28T04:02:38;11.50;99.90
17421;DHT22;8828;48.800;9.540;2022-09-28T04:05:07;11.50;99.90
17421;DHT22;8828;48.800;9.540;2022-09-28T04:07:35;11.50;99.90
17421;DHT22;8828;48.800;9.540;2022-09-28T04:10:04;11.50;99.90
17421;DHT22;8828;48.800;9.540;2022-09-28T04:12:32;11.50;99.90
17421;DHT22;8828;48.800;9.540;2022-09-28T04:15:00;11.50;99.90
17421;DHT22;8828;48.800;9.540;2022-09-28T04:17:27;11.50;99.90
17421;DHT22;8828;48.800;9.540;2022-09-28T04:19:55;11.50;99.90
17421;DHT22;8828;48.800;9.540;2022-09-28T04:22:25;11.50;99.90
17421;DHT22;8828;48.800;9.540;2022-09-28T04:24:52;11.50;99.90
17421;DHT22;8828;48.800;9.540;2022-09-28T04:27:20;11.50;99.90
17421;DHT22;8828;48.800;9.540;2022-09-28T04:30:07;11.60;99.90
17421;DHT22;8828;48.800;9.540;2022-09-28T04:32:35;11.50;99.90
17421;DHT22;8828;48.800;9.540;2022-09-28T04:35:03;11.50;99.90
17421;DHT22;8828;48.800;9.540;2022-09-28T04:37:33;11.50;99.90
17421;DHT22;8828;48.800;9.540;2022-09-28T04:40:01;11.50;99.90
17421;DHT22;8828;48.800;9.540;2022-09-28T04:42:29;11.50;99.90
17421;DHT22;8828;48.800;9.540;2022-09-28T04:44:56;11.50;99.90
17421;DHT22;8828;48.800;9.540;2022-09-28T04:47:28;11.50;99.90
17421;DHT22;8828;48.800;9.540;2022-09-28T04:49:56;11.50;99.90
17421;DHT22;8828;48.800;9.540;2022-09-28T04:52:24;11.40;99.90
17421;DHT22;8828;48.800;9.540;2022-09-28T04:54:53;11.40;99.90
17421;DHT22;8828;48.800;9.540;2022-09-28T04:57:21;11.40;99.90
17421;DHT22;8828;48.800;9.540;2022-09-28T04:59:49;11.40;99.90
17421;DHT22;8828;48.800;9.540;2022-09-28T05:02:17;11.40;99.90
17421;DHT22;8828;48.800;9.540;2022-09-28T05:04:46;11.40;99.90
17421;DHT22;8828;48.800;9.540;2022-09-28T05:07:13;11.40;99.90
17421;DHT22;8828;48.800;9.540;2022-09-28T05:09:41;11.40;99.90
17421;DHT22;8828;48.800;9.540;2022-09-28T05:12:10;11.40;99.90
17421;DHT22;8828;48.800;9.540;2022-09-28T05:14:38;11.40;99.90
17421;DHT22;8828;48.800;9.540;2022-09-28T05:17:08;11.40;99.90
17421;DHT22;8828;48.800;9.540;2022-09-28T05:19:36;11.40;99.90
17421;DHT22;8828;48.800;9.540;2022-09-28T05:22:04;11.40;99.90
17421;DHT22;8828;48.800;9.540;2022-09-28T05:24:36;11.40;99.90
17421;DHT22;8828;48.800;9.540;2022-09-28T05:27:04;11.40;99.90
17421;DHT22;8828;48.800;9.540;2022-09-28T05:29:34;11.40;99.90
17421;DHT22;8828;48.800;9.540;2022-09-28T05:32:02;11.40;99.90
17421;DHT22;8828;48.800;9.540;2022-09-28T05:34:30;11.30;99.90
17421;DHT22;8828;48.800;9.540;2022-09-28T05:36:57;11.40;99.90
17421;DHT22;8828;48.800;9.540;2022-09-28T05:39:25;11.40;99.90
17421;DHT22;8828;48.800;9.540;2022-09-28T05:41:54;11.40;99.90
17421;DHT22;8828;48.800;9.540;2022-09-28T05:44:23;11.40;99.90
17421;DHT22;8828;48.800;9.540;2022-09-28T05:46:53;11.40;99.90
17421;DHT22;8828;48.800;9.540;2022-09-28T05:49:21;11.40;99.90
17421;DHT22;8828;48.800;9.540;2022-09-28T05:51:48;11.40;99.90
17421;DHT22;8828;48.800;9.540;2022-09-28T05:54:16;11.40;99.90
17421;DHT22;8828;48.800;9.540;2022-09-28T05:56:44;11.40;99.90
17421;DHT22;8828;48.800;9.540;2022-09-28T05:59:12;11.40;99.90
17421;DHT22;8828;48.800;9.540;2022-09-28T06:01:41;11.40;99.90
17421;DHT22;8828;48.800;9.540;2022-09-28T06:04:10;11.30;99.90
17421;DHT22;8828;48.800;9.540;2022-09-28T06:06:40;11.40;99.90
17421;DHT22;8828;48.800;9.540;2022-09-28T06:09:08;11.30;99.90
17421;DHT22;8828;48.800;9.540;2022-09-28T06:11:36;11.40;99.90
17421;DHT22;8828;48.800;9.540;2022-09-28T06:14:04;11.40;99.90
17421;DHT22;8828;48.800;9.540;2022-09-28T06:16:33;11.40;99.90
17421;DHT22;8828;48.800;9.540;2022-09-28T06:19:07;11.40;99.90
17421;DHT22;8828;48.800;9.540;2022-09-28T06:21:37;11.40;99.90
17421;DHT22;8828;48.800;9.540;2022-09-28T06:24:05;11.40;99.90
17421;DHT22;8828;48.800;9.540;2022-09-28T06:26:33;11.30;99.90
17421;DHT22;8828;48.800;9.540;2022-09-28T06:29:00;11.40;99.90
17421;DHT22;8828;48.800;9.540;2022-09-28T06:31:28;11.30;99.90
17421;DHT22;8828;48.800;9.540;2022-09-28T06:33:56;11.40;99.90
17421;DHT22;8828;48.800;9.540;2022-09-28T06:36:28;11.40;99.90
17421;DHT22;8828;48.800;9.540;2022-09-28T06:38:58;11.40;99.90
17421;DHT22;8828;48.800;9.540;2022-09-28T06:41:26;11.40;99.90
17421;DHT22;8828;48.800;9.540;2022-09-28T06:43:54;11.40;99.90
17421;DHT22;8828;48.800;9.540;2022-09-28T06:46:23;11.40;99.90
17421;DHT22;8828;48.800;9.540;2022-09-28T06:48:51;11.40;99.90
17421;DHT22;8828;48.800;9.540;2022-09-28T06:51:20;11.40;99.90
17421;DHT22;8828;48.800;9.540;2022-09-28T06:53:48;11.40;99.90
17421;DHT22;8828;48.800;9.540;2022-09-28T06:56:20;11.40;99.90
17421;DHT22;8828;48.800;9.540;2022-09-28T06:58:48;11.40;99.90
17421;DHT22;8828;48.800;9.540;2022-09-28T07:01:16;11.40;99.90
17421;DHT22;8828;48.800;9.540;2022-09-28T07:03:44;11.40;99.90
17421;DHT22;8828;48.800;9.540;2022-09-28T07:06:12;11.40;99.90
17421;DHT22;8828;48.800;9.540;2022-09-28T07:08:40;11.40;99.90
17421;DHT22;8828;48.800;9.540;2022-09-28T07:11:19;11.40;99.90
17421;DHT22;8828;48.800;9.540;2022-09-28T07:13:48;11.50;99.90
17421;DHT22;8828;48.800;9.540;2022-09-28T07:16:17;11.40;99.90
17421;DHT22;8828;48.800;9.540;2022-09-28T07:18:52;11.40;99.90
17421;DHT22;8828;48.800;9.540;2022-09-28T07:21:20;11.50;99.90
17421;DHT22;8828;48.800;9.540;2022-09-28T07:23:56;11.40;99.90
17421;DHT22;8828;48.800;9.540;2022-09-28T07:26:25;11.50;99.90
17421;DHT22;8828;48.800;9.540;2022-09-28T07:28:53;11.50;99.90
17421;DHT22;8828;48.800;9.540;2022-09-28T07:31:21;11.50;99.90
17421;DHT22;8828;48.800;9.540;2022-09-28T07:33:51;11.50;99.90
17421;DHT22;8828;48.800;9.540;2022-09-28T07:36:19;11.50;99.90
17421;DHT22;8828;48.800;9.540;2022-09-28T07:38:48;11.50;99.90
17421;DHT22;8828;48.800;9.540;2022-09-28T07:41:16;11.50;99.90
17421;DHT22;8828;48.800;9.540;2022-09-28T07:43:49;11.50;99.90
17421;DHT22;8828;48.800;9.540;2022-09-28T07:46:17;11.60;99.90
17421;DHT22;8828;48.800;9.540;2022-09-28T07:48:47;11.60;99.90
17421;DHT22;8828;48.800;9.540;2022-09-28T07:51:17;11.60;99.90
17421;DHT22;8828;48.800;9.540;2022-09-28T07:53:46;11.70;99.90
17421;DHT22;8828;48.800;9.540;2022-09-28T07:56:14;11.70;99.90
17421;DHT22;8828;48.800;9.540;2022-09-28T07:58:46;11.70;99.90
17421;DHT22;8828;48.800;9.540;2022-09-28T08:01:15;11.70;99.90
17421;DHT22;8828;48.800;9.540;2022-09-28T08:03:45;11.80;99.90
17421;DHT22;8828;48.800;9.540;2022-09-28T08:06:15;11.80;99.90
17421;DHT22;8828;48.800;9.540;2022-09-28T08:08:43;11.80;99.90
17421;DHT22;8828;48.800;9.540;2022-09-28T08:11:12;11.80;99.90
17421;DHT22;8828;48.800;9.540;2022-09-28T08:13:41;11.80;99.90
17421;DHT22;8828;48.800;9.540;2022-09-28T08:16:11;11.80;99.90
17421;DHT22;8828;48.800;9.540;2022-09-28T08:18:40;11.80;99.90
17421;DHT22;8828;48.800;9.540;2022-09-28T08:21:09;11.80;99.90
17421;DHT22;8828;48.800;9.540;2022-09-28T08:23:55;11.80;99.90
17421;DHT22;8828;48.800;9.540;2022-09-28T08:26:23;11.80;99.90
17421;DHT22;8828;48.800;9.540;2022-09-28T08:28:51;11.80;99.90
17421;DHT22;8828;48.800;9.540;2022-09-28T08:31:19;11.80;99.90
17421;DHT22;8828;48.800;9.540;2022-09-28T08:33:48;11.90;99.90
17421;DHT22;8828;48.800;9.540;2022-09-28T08:36:19;11.90;99.90
17421;DHT22;8828;48.800;9.540;2022-09-28T08:38:47;11.90;99.90
17421;DHT22;8828;48.800;9.540;2022-09-28T08:41:17;12.00;99.90
17421;DHT22;8828;48.800;9.540;2022-09-28T08:43:59;12.00;99.90
17421;DHT22;8828;48.800;9.540;2022-09-28T08:46:33;12.00;99.90
17421;DHT22;8828;48.800;9.540;2022-09-28T08:49:06;12.00;99.90
17421;DHT22;8828;48.800;9.540;2022-09-28T08:51:56;12.00;99.90
17421;DHT22;8828;48.800;9.540;2022-09-28T08:54:35;12.00;99.90
17421;DHT22;8828;48.800;9.540;2022-09-28T08:57:09;11.90;99.90
17421;DHT22;8828;48.800;9.540;2022-09-28T08:59:45;11.90;99.90
17421;DHT22;8828;48.800;9.540;2022-09-28T09:02:18;11.90;99.90
17421;DHT22;8828;48.800;9.540;2022-09-28T09:04:49;12.00;99.90
17421;DHT22;8828;48.800;9.540;2022-09-28T09:07:51;12.10;99.90
17421;DHT22;8828;48.800;9.540;2022-09-28T09:10:41;12.20;99.90
17421;DHT22;8828;48.800;9.540;2022-09-28T09:15:42;12.30;99.90
17421;DHT22;8828;48.800;9.540;2022-09-28T09:18:16;12.40;99.90
17421;DHT22;8828;48.800;9.540;2022-09-28T09:20:51;12.40;99.90
17421;DHT22;8828;48.800;9.540;2022-09-28T09:23:23;12.40;99.90
17421;DHT22;8828;48.800;9.540;2022-09-28T09:25:55;12.40;99.90
17421;DHT22;8828;48.800;9.540;2022-09-28T09:28:29;12.50;99.90
17421;DHT22;8828;48.800;9.540;2022-09-28T09:31:05;12.50;99.90
17421;DHT22;8828;48.800;9.540;2022-09-28T09:33:46;12.60;99.90
17421;DHT22;8828;48.800;9.540;2022-09-28T09:36:24;12.70;99.90
17421;DHT22;8828;48.800;9.540;2022-09-28T09:38:57;12.80;99.90
17421;DHT22;8828;48.800;9.540;2022-09-28T09:41:30;12.80;99.90
17421;DHT22;8828;48.800;9.540;2022-09-28T09:44:10;12.90;99.90
17421;DHT22;8828;48.800;9.540;2022-09-28T09:46:44;13.00;99.90
17421;DHT22;8828;48.800;9.540;2022-09-28T09:49:14;13.10;99.90
17421;DHT22;8828;48.800;9.540;2022-09-28T09:51:44;13.10;99.90
17421;DHT22;8828;48.800;9.540;2022-09-28T09:54:17;13.20;99.90
17421;DHT22;8828;48.800;9.540;2022-09-28T09:56:48;13.30;99.90
17421;DHT22;8828;48.800;9.540;2022-09-28T09:59:19;13.30;99.90
17421;DHT22;8828;48.800;9.540;2022-09-28T10:01:49;13.30;99.90
17421;DHT22;8828;48.800;9.540;2022-09-28T10:04:19;13.30;99.90
17421;DHT22;8828;48.800;9.540;2022-09-28T10:06:48;13.40;99.90
17421;DHT22;8828;48.800;9.540;2022-09-28T10:09:19;13.40;99.90
17421;DHT22;8828;48.800;9.540;2022-09-28T10:11:49;13.40;99.90
17421;DHT22;8828;48.800;9.540;2022-09-28T10:14:18;13.50;99.90
17421;DHT22;8828;48.800;9.540;2022-09-28T10:16:47;13.50;99.90
17421;DHT22;8828;48.800;9.540;2022-09-28T10:21:49;13.50;99.90
17421;DHT22;8828;48.800;9.540;2022-09-28T10:24:27;13.50;99.90
17421;DHT22;8828;48.800;9.540;2022-09-28T10:27:02;13.50;99.90
17421;DHT22;8828;48.800;9.540;2022-09-28T10:29:41;13.40;99.90
17421;DHT22;8828;48.800;9.540;2022-09-28T10:32:19;13.30;99.90
17421;DHT22;8828;48.800;9.540;2022-09-28T10:34:47;13.40;99.90
17421;DHT22;8828;48.800;9.540;2022-09-28T10:37:18;13.40;99.90
17421;DHT22;8828;48.800;9.540;2022-09-28T10:39:50;13.40;99.90
17421;DHT22;8828;48.800;9.540;2022-09-28T10:42:26;13.30;99.90
17421;DHT22;8828;48.800;9.540;2022-09-28T10:44:58;13.50;99.90
17421;DHT22;8828;48.800;9.540;2022-09-28T10:47:28;13.70;99.90
17421;DHT22;8828;48.800;9.540;2022-09-28T10:49:58;13.90;99.90
17421;DHT22;8828;48.800;9.540;2022-09-28T10:52:34;14.10;99.90
17421;DHT22;8828;48.800;9.540;2022-09-28T10:55:26;14.30;99.90
17421;DHT22;8828;48.800;9.540;2022-09-28T10:57:54;14.40;99.90
17421;DHT22;8828;48.800;9.540;2022-09-28T11:00:32;14.40;99.90
17421;DHT22;8828;48.800;9.540;2022-09-28T11:03:01;14.40;99.90
17421;DHT22;8828;48.800;9.540;2022-09-28T11:05:29;14.40;99.90
17421;DHT22;8828;48.800;9.540;2022-09-28T11:08:01;14.40;99.90
17421;DHT22;8828;48.800;9.540;2022-09-28T11:10:32;14.50;99.90
17421;DHT22;8828;48.800;9.540;2022-09-28T11:13:00;14.70;99.90
17421;DHT22;8828;48.800;9.540;2022-09-28T11:15:30;14.80;99.90
17421;DHT22;8828;48.800;9.540;2022-09-28T11:18:18;15.00;99.90
17421;DHT22;8828;48.800;9.540;2022-09-28T11:20:47;15.10;99.90
17421;DHT22;8828;48.800;9.540;2022-09-28T11:23:19;15.20;99.90
17421;DHT22;8828;48.800;9.540;2022-09-28T11:25:59;15.30;99.90
17421;DHT22;8828;48.800;9.540;2022-09-28T11:28:30;15.40;99.90
17421;DHT22;8828;48.800;9.540;2022-09-28T11:30:59;15.50;99.90
17421;DHT22;8828;48.800;9.540;2022-09-28T11:33:30;15.40;99.90
17421;DHT22;8828;48.800;9.540;2022-09-28T11:36:08;15.50;99.90
17421;DHT22;8828;48.800;9.540;2022-09-28T11:38:50;15.70;99.90
17421;DHT22;8828;48.800;9.540;2022-09-28T11:44:32;16.20;99.90
17421;DHT22;8828;48.800;9.540;2022-09-28T11:47:10;16.80;99.90
17421;DHT22;8828;48.800;9.540;2022-09-28T11:49:42;17.30;99.90
17421;DHT22;8828;48.800;9.540;2022-09-28T11:52:12;17.70;99.90
17421;DHT22;8828;48.800;9.540;2022-09-28T11:54:49;18.10;99.90
17421;DHT22;8828;48.800;9.540;2022-09-28T11:57:21;18.40;99.90
17421;DHT22;8828;48.800;9.540;2022-09-28T11:59:52;18.60;99.90
17421;DHT22;8828;48.800;9.540;2022-09-28T12:02:22;18.60;99.90
17421;DHT22;8828;48.800;9.540;2022-09-28T12:04:51;18.70;99.90
17421;DHT22;8828;48.800;9.540;2022-09-28T12:07:22;18.50;99.90
17421;DHT22;8828;48.800;9.540;2022-09-28T12:09:56;18.10;99.90
17421;DHT22;8828;48.800;9.540;2022-09-28T12:12:27;17.90;99.90
17421;DHT22;8828;48.800;9.540;2022-09-28T12:15:00;17.90;99.90
17421;DHT22;8828;48.800;9.540;2022-09-28T12:17:33;18.20;99.90
17421;DHT22;8828;48.800;9.540;2022-09-28T12:20:09;18.20;99.90
17421;DHT22;8828;48.800;9.540;2022-09-28T12:22:43;18.40;99.90
17421;DHT22;8828;48.800;9.540;2022-09-28T12:25:15;18.60;99.90
17421;DHT22;8828;48.800;9.540;2022-09-28T12:27:48;18.70;99.90
17421;DHT22;8828;48.800;9.540;2022-09-28T12:30:18;18.70;99.90
17421;DHT22;8828;48.800;9.540;2022-09-28T12:32:47;18.80;99.90
17421;DHT22;8828;48.800;9.540;2022-09-28T12:35:23;18.70;99.90
17421;DHT22;8828;48.800;9.540;2022-09-28T12:38:10;18.90;99.90
17421;DHT22;8828;48.800;9.540;2022-09-28T12:40:44;19.20;99.90
17421;DHT22;8828;48.800;9.540;2022-09-28T12:43:43;19.40;99.90
17421;DHT22;8828;48.800;9.540;2022-09-28T12:46:29;19.70;99.90
17421;DHT22;8828;48.800;9.540;2022-09-28T12:49:20;19.90;99.90
17421;DHT22;8828;48.800;9.540;2022-09-28T12:52:27;19.80;99.90
17421;DHT22;8828;48.800;9.540;2022-09-28T12:55:18;19.70;99.90
17421;DHT22;8828;48.800;9.540;2022-09-28T12:57:58;19.60;99.90
17421;DHT22;8828;48.800;9.540;2022-09-28T13:00:36;19.30;99.90
17421;DHT22;8828;48.800;9.540;2022-09-28T13:03:20;19.20;99.90
17421;DHT22;8828;48.800;9.540;2022-09-28T13:06:13;19.10;99.90
17421;DHT22;8828;48.800;9.540;2022-09-28T13:08:52;18.80;99.90
17421;DHT22;8828;48.800;9.540;2022-09-28T13:11:31;18.60;99.90
17421;DHT22;8828;48.800;9.540;2022-09-28T13:14:22;18.50;99.90
17421;DHT22;8828;48.800;9.540;2022-09-28T13:16:55;18.30;99.90
17421;DHT22;8828;48.800;9.540;2022-09-28T13:19:33;18.30;99.90
17421;DHT22;8828;48.800;9.540;2022-09-28T13:22:12;18.20;99.90
17421;DHT22;8828;48.800;9.540;2022-09-28T13:24:44;18.10;99.90
17421;DHT22;8828;48.800;9.540;2022-09-28T13:27:25;17.90;99.90
17421;DHT22;8828;48.800;9.540;2022-09-28T13:29:57;17.80;99.90
17421;DHT22;8828;48.800;9.540;2022-09-28T13:32:26;17.70;99.90
17421;DHT22;8828;48.800;9.540;2022-09-28T13:34:57;17.50;99.90
17421;DHT22;8828;48.800;9.540;2022-09-28T13:37:28;17.30;99.90
17421;DHT22;8828;48.800;9.540;2022-09-28T13:39:57;17.10;99.90
17421;DHT22;8828;48.800;9.540;2022-09-28T13:45:52;16.40;99.90
17421;DHT22;8828;48.800;9.540;2022-09-28T13:48:32;16.10;99.90
17421;DHT22;8828;48.800;9.540;2022-09-28T13:51:11;15.70;99.90
17421;DHT22;8828;48.800;9.540;2022-09-28T13:54:00;15.50;99.90
17421;DHT22;8828;48.800;9.540;2022-09-28T13:56:35;15.50;99.90
17421;DHT22;8828;48.800;9.540;2022-09-28T13:59:13;15.40;99.90
17421;DHT22;8828;48.800;9.540;2022-09-28T14:01:51;15.50;99.90
17421;DHT22;8828;48.800;9.540;2022-09-28T14:04:22;15.50;99.90
17421;DHT22;8828;48.800;9.540;2022-09-28T14:06:54;15.50;99.90
17421;DHT22;8828;48.800;9.540;2022-09-28T14:12:28;15.40;99.90
17421;DHT22;8828;48.800;9.540;2022-09-28T14:14:56;15.40;99.90
17421;DHT22;8828;48.800;9.540;2022-09-28T14:17:55;15.40;99.90
17421;DHT22;8828;48.800;9.540;2022-09-28T14:20:26;15.30;99.90
17421;DHT22;8828;48.800;9.540;2022-09-28T14:23:17;15.30;99.90
17421;DHT22;8828;48.800;9.540;2022-09-28T14:28:55;15.30;99.90
17421;DHT22;8828;48.800;9.540;2022-09-28T14:31:32;15.30;99.90
17421;DHT22;8828;48.800;9.540;2022-09-28T14:34:02;15.20;99.90
17421;DHT22;8828;48.800;9.540;2022-09-28T14:36:37;15.20;99.90
17421;DHT22;8828;48.800;9.540;2022-09-28T14:39:27;15.10;99.90
17421;DHT22;8828;48.800;9.540;2022-09-28T14:42:17;15.10;99.90
17421;DHT22;8828;48.800;9.540;2022-09-28T14:48:20;15.10;99.90
17421;DHT22;8828;48.800;9.540;2022-09-28T14:50:49;15.10;99.90
17421;DHT22;8828;48.800;9.540;2022-09-28T14:53:22;15.10;99.90
17421;DHT22;8828;48.800;9.540;2022-09-28T14:55:54;15.10;99.90
17421;DHT22;8828;48.800;9.540;2022-09-28T14:58:26;15.10;99.90
17421;DHT22;8828;48.800;9.540;2022-09-28T15:01:01;15.10;99.90
17421;DHT22;8828;48.800;9.540;2022-09-28T15:03:33;15.10;99.90
17421;DHT22;8828;48.800;9.540;2022-09-28T15:06:03;15.10;99.90
17421;DHT22;8828;48.800;9.540;2022-09-28T15:08:35;15.00;99.90
17421;DHT22;8828;48.800;9.540;2022-09-28T15:11:05;15.00;99.90
17421;DHT22;8828;48.800;9.540;2022-09-28T15:13:33;15.00;99.90
17421;DHT22;8828;48.800;9.540;2022-09-28T15:16:05;15.00;99.90
17421;DHT22;8828;48.800;9.540;2022-09-28T15:18:51;14.90;99.90
17421;DHT22;8828;48.800;9.540;2022-09-28T15:21:31;14.80;99.90
17421;DHT22;8828;48.800;9.540;2022-09-28T15:24:00;14.70;99.90
17421;DHT22;8828;48.800;9.540;2022-09-28T15:26:30;14.70;99.90
17421;DHT22;8828;48.800;9.540;2022-09-28T15:28:58;14.60;99.90
17421;DHT22;8828;48.800;9.540;2022-09-28T15:31:34;14.60;99.90
17421;DHT22;8828;48.800;9.540;2022-09-28T15:34:02;14.60;99.90
17421;DHT22;8828;48.800;9.540;2022-09-28T15:36:49;14.50;99.90
17421;DHT22;8828;48.800;9.540;2022-09-28T15:39:26;14.40;99.90
17421;DHT22;8828;48.800;9.540;2022-09-28T15:41:57;14.40;99.90
17421;DHT22;8828;48.800;9.540;2022-09-28T15:44:30;14.40;99.90
17421;DHT22;8828;48.800;9.540;2022-09-28T15:47:07;14.40;99.90
17421;DHT22;8828;48.800;9.540;2022-09-28T15:49:39;14.30;99.90
17421;DHT22;8828;48.800;9.540;2022-09-28T15:52:24;14.30;99.90
17421;DHT22;8828;48.800;9.540;2022-09-28T15:54:53;14.30;99.90
17421;DHT22;8828;48.800;9.540;2022-09-28T15:57:33;14.20;99.90
17421;DHT22;8828;48.800;9.540;2022-09-28T16:00:05;14.20;99.90
17421;DHT22;8828;48.800;9.540;2022-09-28T16:02:34;14.10;99.90
17421;DHT22;8828;48.800;9.540;2022-09-28T16:05:02;14.10;99.90
17421;DHT22;8828;48.800;9.540;2022-09-28T16:07:35;14.00;99.90
17421;DHT22;8828;48.800;9.540;2022-09-28T16:10:27;14.00;99.90
17421;DHT22;8828;48.800;9.540;2022-09-28T16:13:12;13.90;99.90
17421;DHT22;8828;48.800;9.540;2022-09-28T16:15:41;13.90;99.90
17421;DHT22;8828;48.800;9.540;2022-09-28T16:18:18;13.90;99.90
17421;DHT22;8828;48.800;9.540;2022-09-28T16:20:49;13.80;99.90
17421;DHT22;8828;48.800;9.540;2022-09-28T16:23:24;13.80;99.90
17421;DHT22;8828;48.800;9.540;2022-09-28T16:25:55;13.70;99.90
17421;DHT22;8828;48.800;9.540;2022-09-28T16:28:47;13.70;99.90
17421;DHT22;8828;48.800;9.540;2022-09-28T16:31:26;13.60;99.90
17421;DHT22;8828;48.800;9.540;2022-09-28T16:33:57;13.50;99.90
17421;DHT22;8828;48.800;9.540;2022-09-28T16:36:28;13.50;99.90
17421;DHT22;8828;48.800;9.540;2022-09-28T16:39:06;13.40;99.90
17421;DHT22;8828;48.800;9.540;2022-09-28T16:41:35;13.40;99.90
17421;DHT22;8828;48.800;9.540;2022-09-28T16:44:13;13.30;99.90
17421;DHT22;8828;48.800;9.540;2022-09-28T16:46:42;13.20;99.90